createdAt,value
2022-10-07T00:00:10.450Z,3.30
2022-10-07T00:01:05.609Z,2.50
2022-10-07T00:02:00.908Z,2.60
2022-10-07T00:02:55.961Z,2.80
2022-10-07T00:03:51.138Z,2.80
2022-10-07T00:04:46.317Z,2.70
2022-10-07T00:05:41.470Z,2.80
2022-10-07T00:06:36.544Z,3.10
2022-10-07T00:07:31.770Z,2.80
2022-10-07T00:08:26.927Z,2.70
2022-10-07T00:09:22.056Z,2.20
2022-10-07T00:10:17.297Z,2.80
2022-10-07T00:11:12.418Z,2.70
2022-10-07T00:12:07.604Z,2.60
2022-10-07T00:13:02.743Z,2.60
2022-10-07T00:13:57.822Z,2.70
2022-10-07T00:14:53.265Z,2.90
2022-10-07T00:15:48.244Z,3.10
2022-10-07T00:16:43.509Z,2.70
2022-10-07T00:17:38.614Z,3.00
2022-10-07T00:18:33.809Z,2.60
2022-10-07T00:19:29.029Z,3.00
2022-10-07T00:20:27.192Z,2.60
2022-10-07T00:21:22.030Z,2.70
2022-10-07T00:22:17.239Z,2.70
2022-10-07T00:23:12.400Z,2.70
2022-10-07T00:24:07.760Z,2.70
2022-10-07T00:25:03.003Z,2.60
2022-10-07T00:25:58.191Z,3.00
2022-10-07T00:26:53.272Z,2.90
2022-10-07T00:27:49.791Z,2.70
2022-10-07T00:28:44.959Z,2.60
2022-10-07T00:29:40.112Z,2.80
2022-10-07T00:30:35.309Z,3.20
2022-10-07T00:31:30.432Z,3.00
2022-10-07T00:32:25.623Z,2.90
2022-10-07T00:33:20.758Z,3.20
2022-10-07T00:34:15.923Z,2.50
2022-10-07T00:35:11.342Z,2.90
2022-10-07T00:36:06.402Z,2.80
2022-10-07T00:37:01.559Z,2.60
2022-10-07T00:37:56.742Z,3.00
2022-10-07T00:38:51.911Z,2.80
2022-10-07T00:39:47.100Z,2.80
2022-10-07T00:40:42.299Z,2.60
2022-10-07T00:41:37.517Z,2.80
2022-10-07T00:42:32.810Z,3.00
2022-10-07T00:43:27.849Z,3.00
2022-10-07T00:44:23.021Z,2.70
2022-10-07T00:45:18.239Z,2.80
2022-10-07T00:46:13.443Z,3.10
2022-10-07T00:47:08.785Z,2.60
2022-10-07T00:48:03.835Z,2.70
2022-10-07T00:48:59.083Z,2.90
2022-10-07T00:49:54.243Z,2.80
2022-10-07T00:50:49.424Z,2.80
2022-10-07T00:51:44.713Z,3.00
2022-10-07T00:52:39.723Z,2.90
2022-10-07T00:53:35.044Z,2.70
2022-10-07T00:54:30.222Z,2.70
2022-10-07T00:55:25.408Z,2.70
2022-10-07T00:56:20.562Z,2.70
2022-10-07T00:57:15.789Z,3.50
2022-10-07T00:58:10.971Z,2.80
2022-10-07T00:59:06.291Z,2.70
2022-10-07T01:00:01.325Z,2.50
2022-10-07T01:00:56.531Z,2.30
2022-10-07T01:01:51.651Z,2.80
2022-10-07T01:02:46.789Z,3.00
2022-10-07T01:03:42.037Z,2.70
2022-10-07T01:04:37.169Z,2.70
2022-10-07T01:05:32.295Z,2.60
2022-10-07T01:06:27.474Z,3.40
2022-10-07T01:07:22.733Z,2.80
2022-10-07T01:08:17.938Z,3.40
2022-10-07T01:09:13.106Z,2.70
2022-10-07T01:10:08.218Z,2.60
2022-10-07T01:11:03.367Z,3.00
2022-10-07T01:11:58.489Z,3.10
2022-10-07T01:12:53.715Z,2.90
2022-10-07T01:13:48.896Z,3.30
2022-10-07T01:14:43.977Z,3.10
2022-10-07T01:15:39.255Z,3.00
2022-10-07T01:16:34.305Z,2.60
2022-10-07T01:17:29.435Z,3.00
2022-10-07T01:18:24.535Z,3.30
2022-10-07T01:19:19.658Z,2.90
2022-10-07T01:20:14.949Z,2.90
2022-10-07T01:21:09.948Z,3.30
2022-10-07T01:22:05.015Z,2.90
2022-10-07T01:23:00.134Z,3.10
2022-10-07T01:23:55.515Z,3.10
2022-10-07T01:24:50.637Z,3.40
2022-10-07T01:25:45.688Z,3.30
2022-10-07T01:26:40.704Z,2.80
2022-10-07T01:27:35.677Z,2.80
2022-10-07T01:28:30.889Z,3.30
2022-10-07T01:29:25.879Z,3.00
2022-10-07T01:30:20.882Z,3.00
2022-10-07T01:31:16.201Z,3.20
2022-10-07T01:32:11.160Z,3.60
2022-10-07T01:33:06.381Z,2.80
2022-10-07T01:34:01.401Z,3.20
2022-10-07T01:34:56.377Z,3.00
2022-10-07T01:35:51.381Z,3.30
2022-10-07T01:36:46.507Z,3.00
2022-10-07T01:37:41.776Z,2.90
2022-10-07T01:38:36.613Z,3.10
2022-10-07T01:39:31.669Z,2.90
2022-10-07T01:40:26.720Z,3.40
2022-10-07T01:41:21.872Z,3.10
2022-10-07T01:42:16.806Z,3.20
2022-10-07T01:43:11.819Z,3.30
2022-10-07T01:44:06.856Z,3.00
2022-10-07T01:45:01.880Z,2.90
2022-10-07T01:45:56.990Z,3.20
2022-10-07T01:46:52.037Z,2.70
2022-10-07T01:47:47.389Z,3.00
2022-10-07T01:48:42.467Z,3.20
2022-10-07T01:49:37.603Z,2.90
2022-10-07T01:50:33.325Z,3.20
2022-10-07T01:51:28.538Z,3.00
2022-10-07T01:52:24.277Z,3.40
2022-10-07T01:53:19.681Z,2.90
2022-10-07T01:54:14.740Z,2.90
2022-10-07T01:55:10.624Z,4.50
2022-10-07T01:56:08.508Z,3.40
2022-10-07T01:57:02.044Z,3.30
2022-10-07T01:57:56.313Z,3.20
2022-10-07T01:58:52.101Z,3.00
2022-10-07T01:59:47.312Z,3.00
2022-10-07T02:00:42.470Z,3.30
2022-10-07T02:01:38.912Z,3.00
2022-10-07T02:02:34.097Z,3.30
2022-10-07T02:03:29.860Z,3.10
2022-10-07T02:04:25.011Z,3.50
2022-10-07T02:05:20.195Z,3.40
2022-10-07T02:06:15.941Z,3.20
2022-10-07T02:07:11.134Z,2.90
2022-10-07T02:08:07.153Z,3.10
2022-10-07T02:09:02.069Z,2.90
2022-10-07T02:09:57.269Z,3.30
2022-10-07T02:10:53.017Z,2.90
2022-10-07T02:11:48.234Z,2.60
2022-10-07T02:12:43.525Z,3.20
2022-10-07T02:13:39.840Z,3.50
2022-10-07T02:14:35.040Z,2.80
2022-10-07T02:15:30.849Z,3.30
2022-10-07T02:16:26.102Z,3.40
2022-10-07T02:17:21.485Z,3.10
2022-10-07T02:18:17.109Z,3.10
2022-10-07T02:19:12.308Z,3.80
2022-10-07T02:20:08.057Z,2.80
2022-10-07T02:21:03.234Z,2.80
2022-10-07T02:21:58.543Z,3.10
2022-10-07T02:22:54.154Z,3.00
2022-10-07T02:23:49.337Z,3.20
2022-10-07T02:24:44.564Z,3.30
2022-10-07T02:25:40.968Z,3.10
2022-10-07T02:26:36.174Z,3.30
2022-10-07T02:27:31.903Z,3.20
2022-10-07T02:28:27.122Z,2.90
2022-10-07T02:29:22.326Z,3.10
2022-10-07T02:30:18.084Z,3.20
2022-10-07T02:31:13.377Z,3.10
2022-10-07T02:32:09.062Z,3.60
2022-10-07T02:33:04.342Z,3.10
2022-10-07T02:33:59.559Z,3.20
2022-10-07T02:34:55.366Z,3.50
2022-10-07T02:35:50.572Z,3.40
2022-10-07T02:36:45.735Z,3.20
2022-10-07T02:37:42.286Z,3.60
2022-10-07T02:38:37.399Z,3.10
2022-10-07T02:39:33.159Z,3.10
2022-10-07T02:40:28.380Z,3.30
2022-10-07T02:41:23.567Z,3.10
2022-10-07T02:42:19.320Z,3.90
2022-10-07T02:43:14.494Z,2.90
2022-10-07T02:44:10.473Z,3.40
2022-10-07T02:45:05.459Z,3.30
2022-10-07T02:46:00.741Z,3.20
2022-10-07T02:46:56.486Z,3.60
2022-10-07T02:47:51.641Z,2.80
2022-10-07T02:48:46.936Z,3.10
2022-10-07T02:49:43.162Z,3.40
2022-10-07T02:50:38.327Z,3.50
2022-10-07T02:51:34.399Z,3.20
2022-10-07T02:52:29.330Z,3.30
2022-10-07T02:53:25.327Z,3.00
2022-10-07T02:54:20.361Z,3.40
2022-10-07T02:55:15.554Z,3.00
2022-10-07T02:56:11.450Z,3.10
2022-10-07T02:57:06.582Z,3.50
2022-10-07T02:58:01.822Z,3.00
2022-10-07T02:58:58.214Z,2.90
2022-10-07T02:59:53.351Z,3.50
2022-10-07T03:00:49.226Z,2.50
2022-10-07T03:01:44.351Z,2.90
2022-10-07T03:02:39.743Z,3.10
2022-10-07T03:03:35.509Z,3.00
2022-10-07T03:04:30.666Z,3.30
2022-10-07T03:05:26.516Z,2.90
2022-10-07T03:06:21.728Z,2.60
2022-10-07T03:07:16.955Z,3.30
2022-10-07T03:08:12.120Z,3.20
2022-10-07T03:09:07.231Z,3.30
2022-10-07T03:10:04.140Z,2.60
2022-10-07T03:10:59.268Z,2.70
2022-10-07T03:11:54.704Z,3.30
2022-10-07T03:12:50.468Z,2.60
2022-10-07T03:13:45.579Z,2.90
2022-10-07T03:14:40.740Z,3.40
2022-10-07T03:15:41.084Z,2.80
2022-10-07T03:16:32.149Z,3.00
2022-10-07T03:17:26.180Z,2.80
2022-10-07T03:18:21.173Z,2.50
2022-10-07T03:19:16.290Z,2.90
2022-10-07T03:20:11.330Z,3.10
2022-10-07T03:21:06.346Z,2.80
2022-10-07T03:22:01.337Z,2.60
2022-10-07T03:22:56.467Z,2.70
2022-10-07T03:23:51.457Z,2.80
2022-10-07T03:24:46.586Z,3.20
2022-10-07T03:25:41.639Z,2.90
2022-10-07T03:26:36.645Z,3.00
2022-10-07T03:27:31.765Z,2.70
2022-10-07T03:28:26.906Z,2.60
2022-10-07T03:29:21.879Z,2.50
2022-10-07T03:30:19.236Z,2.80
2022-10-07T03:31:12.043Z,2.70
2022-10-07T03:32:06.994Z,3.00
2022-10-07T03:33:01.990Z,2.80
2022-10-07T03:33:57.027Z,2.60
2022-10-07T03:34:52.140Z,2.90
2022-10-07T03:35:47.209Z,2.70
2022-10-07T03:36:42.245Z,2.40
2022-10-07T03:37:37.265Z,3.00
2022-10-07T03:38:32.562Z,2.90
2022-10-07T03:39:28.603Z,2.60
2022-10-07T03:40:23.881Z,2.80
2022-10-07T03:41:19.220Z,2.80
2022-10-07T03:42:15.556Z,3.40
2022-10-07T03:43:10.762Z,2.70
2022-10-07T03:44:06.554Z,3.30
2022-10-07T03:45:01.700Z,2.80
2022-10-07T03:45:57.182Z,3.00
2022-10-07T03:46:52.874Z,2.80
2022-10-07T03:47:47.994Z,2.50
2022-10-07T03:48:43.930Z,3.10
2022-10-07T03:49:38.962Z,3.00
2022-10-07T03:50:34.472Z,2.70
2022-10-07T03:51:30.097Z,2.60
2022-10-07T03:52:25.720Z,2.70
2022-10-07T03:53:20.656Z,2.60
2022-10-07T03:54:17.239Z,2.50
2022-10-07T03:55:12.477Z,2.80
2022-10-07T03:56:08.246Z,2.80
2022-10-07T03:57:03.415Z,2.70
2022-10-07T03:57:59.731Z,3.00
2022-10-07T03:58:54.421Z,2.80
2022-10-07T03:59:49.681Z,3.00
2022-10-07T04:00:45.414Z,2.60
2022-10-07T04:01:40.611Z,2.60
2022-10-07T04:02:36.000Z,3.00
2022-10-07T04:03:31.737Z,2.80
2022-10-07T04:04:27.074Z,2.50
2022-10-07T04:05:22.115Z,2.80
2022-10-07T04:06:18.548Z,3.30
2022-10-07T04:07:13.743Z,2.70
2022-10-07T04:08:09.516Z,2.80
2022-10-07T04:09:04.680Z,2.80
2022-10-07T04:09:59.913Z,3.40
2022-10-07T04:10:55.677Z,3.30
2022-10-07T04:11:50.889Z,3.30
2022-10-07T04:12:46.757Z,2.70
2022-10-07T04:13:41.949Z,2.70
2022-10-07T04:14:37.021Z,2.40
2022-10-07T04:15:32.791Z,2.50
2022-10-07T04:16:28.071Z,2.80
2022-10-07T04:17:23.388Z,2.50
2022-10-07T04:18:19.832Z,2.50
2022-10-07T04:19:14.909Z,2.80
2022-10-07T04:20:10.687Z,2.40
2022-10-07T04:21:05.839Z,2.80
2022-10-07T04:22:04.950Z,2.80
2022-10-07T04:22:57.988Z,2.70
2022-10-07T04:23:52.234Z,2.90
2022-10-07T04:24:47.450Z,3.00
2022-10-07T04:25:42.545Z,2.40
2022-10-07T04:26:37.655Z,2.60
2022-10-07T04:27:50.569Z,3.00
2022-10-07T04:28:28.767Z,2.70
2022-10-07T04:29:22.814Z,2.90
2022-10-07T04:30:17.887Z,2.80
2022-10-07T04:31:13.018Z,3.00
2022-10-07T04:32:08.083Z,2.70
2022-10-07T04:33:03.163Z,2.90
2022-10-07T04:33:58.255Z,2.70
2022-10-07T04:34:57.216Z,2.70
2022-10-07T04:35:52.211Z,2.90
2022-10-07T04:36:47.290Z,2.90
2022-10-07T04:37:42.702Z,2.90
2022-10-07T04:38:37.484Z,3.30
2022-10-07T04:39:56.180Z,3.00
2022-10-07T04:40:28.536Z,3.00
2022-10-07T04:41:22.653Z,3.40
2022-10-07T04:42:17.722Z,3.20
2022-10-07T04:43:12.790Z,3.10
2022-10-07T04:44:08.025Z,3.70
2022-10-07T04:45:02.997Z,3.30
2022-10-07T04:46:01.572Z,2.80
2022-10-07T04:46:56.693Z,2.90
2022-10-07T04:47:51.672Z,3.10
2022-10-07T04:48:46.716Z,3.40
2022-10-07T04:49:41.786Z,2.90
2022-10-07T04:50:36.875Z,3.30
2022-10-07T04:51:32.626Z,3.50
2022-10-07T04:52:27.878Z,3.00
2022-10-07T04:53:23.134Z,2.70
2022-10-07T04:54:18.414Z,3.30
2022-10-07T04:55:13.465Z,3.00
2022-10-07T04:56:08.506Z,3.10
2022-10-07T04:57:03.588Z,3.10
2022-10-07T04:57:58.625Z,2.90
2022-10-07T04:58:53.671Z,3.20
2022-10-07T04:59:48.717Z,2.80
2022-10-07T05:00:43.858Z,3.10
2022-10-07T05:01:38.867Z,3.00
2022-10-07T05:02:33.842Z,2.70
2022-10-07T05:03:29.077Z,3.00
2022-10-07T05:04:23.897Z,2.70
2022-10-07T05:05:18.919Z,3.60
2022-10-07T05:06:13.982Z,3.30
2022-10-07T05:07:09.271Z,2.90
2022-10-07T05:08:04.467Z,2.70
2022-10-07T05:08:59.701Z,3.00
2022-10-07T05:09:54.959Z,3.00
2022-10-07T05:10:50.329Z,3.20
2022-10-07T05:11:45.717Z,3.80
2022-10-07T05:12:40.837Z,2.90
2022-10-07T05:13:35.986Z,3.30
2022-10-07T05:14:31.237Z,3.20
2022-10-07T05:15:26.491Z,3.10
2022-10-07T05:16:21.759Z,3.20
2022-10-07T05:17:17.046Z,3.80
2022-10-07T05:18:12.285Z,3.30
2022-10-07T05:19:07.503Z,2.90
2022-10-07T05:20:02.886Z,3.30
2022-10-07T05:20:58.137Z,3.30
2022-10-07T05:21:53.505Z,3.10
2022-10-07T05:22:48.630Z,2.80
2022-10-07T05:23:43.950Z,3.20
2022-10-07T05:24:39.286Z,3.20
2022-10-07T05:25:34.582Z,3.10
2022-10-07T05:26:30.489Z,3.20
2022-10-07T05:27:25.237Z,3.20
2022-10-07T05:28:20.310Z,2.90
2022-10-07T05:29:15.394Z,3.30
2022-10-07T05:30:10.520Z,2.90
2022-10-07T05:31:05.551Z,3.10
2022-10-07T05:32:04.723Z,2.80
2022-10-07T05:32:55.641Z,2.90
2022-10-07T05:33:50.666Z,3.40
2022-10-07T05:34:45.919Z,3.40
2022-10-07T05:35:40.868Z,3.40
2022-10-07T05:36:35.985Z,3.00
2022-10-07T05:37:31.124Z,2.90
2022-10-07T05:38:26.076Z,3.40
2022-10-07T05:39:21.100Z,3.40
2022-10-07T05:40:16.230Z,3.40
2022-10-07T05:41:11.207Z,4.10
2022-10-07T05:42:06.273Z,2.70
2022-10-07T05:43:01.378Z,3.20
2022-10-07T05:43:56.569Z,3.00
2022-10-07T05:44:51.918Z,2.80
2022-10-07T05:45:47.421Z,3.30
2022-10-07T05:46:42.726Z,3.60
2022-10-07T05:47:38.088Z,3.10
2022-10-07T05:48:38.737Z,3.10
2022-10-07T05:49:29.994Z,3.40
2022-10-07T05:50:24.278Z,3.70
2022-10-07T05:51:19.686Z,3.90
2022-10-07T05:52:15.098Z,3.20
2022-10-07T05:53:10.468Z,3.80
2022-10-07T05:54:05.826Z,3.40
2022-10-07T05:55:01.222Z,3.50
2022-10-07T05:55:56.592Z,3.80
2022-10-07T05:56:52.045Z,5.10
2022-10-07T05:57:47.735Z,6.30
2022-10-07T05:58:42.742Z,5.80
2022-10-07T05:59:37.802Z,4.70
2022-10-07T06:00:32.973Z,5.30
2022-10-07T06:02:53.491Z,4.50
2022-10-07T06:03:48.452Z,4.30
2022-10-07T06:04:43.778Z,4.20
2022-10-07T06:05:39.123Z,4.50
2022-10-07T06:06:34.599Z,4.00
2022-10-07T06:07:29.823Z,4.20
2022-10-07T06:08:25.189Z,3.80
2022-10-07T06:09:20.529Z,4.50
2022-10-07T06:10:15.927Z,3.90
2022-10-07T06:11:11.334Z,3.90
2022-10-07T06:12:06.750Z,4.20
2022-10-07T06:13:02.397Z,4.10
2022-10-07T06:13:57.537Z,3.90
2022-10-07T06:14:53.033Z,4.10
2022-10-07T06:15:48.455Z,3.30
2022-10-07T06:16:44.858Z,4.10
2022-10-07T06:17:39.159Z,3.90
2022-10-07T06:18:34.497Z,4.80
2022-10-07T06:19:29.949Z,4.00
2022-10-07T06:20:25.333Z,4.20
2022-10-07T06:21:20.745Z,4.30
2022-10-07T06:22:16.120Z,4.70
2022-10-07T06:23:11.619Z,4.10
2022-10-07T06:24:06.935Z,4.40
2022-10-07T06:25:02.370Z,4.30
2022-10-07T06:25:57.795Z,4.70
2022-10-07T06:26:53.246Z,5.10
2022-10-07T06:27:53.884Z,4.70
2022-10-07T06:28:45.229Z,4.70
2022-10-07T06:29:39.560Z,3.80
2022-10-07T06:30:35.076Z,4.60
2022-10-07T06:31:30.405Z,4.80
2022-10-07T06:32:25.872Z,4.70
2022-10-07T06:33:21.391Z,4.40
2022-10-07T06:34:16.745Z,5.30
2022-10-07T06:35:12.164Z,5.00
2022-10-07T06:36:07.620Z,4.70
2022-10-07T06:37:03.049Z,4.70
2022-10-07T06:37:58.523Z,4.60
2022-10-07T06:38:54.022Z,4.40
2022-10-07T06:39:49.477Z,4.00
2022-10-07T06:40:44.813Z,4.50
2022-10-07T06:41:40.208Z,4.80
2022-10-07T06:42:35.617Z,4.00
2022-10-07T06:43:31.079Z,4.10
2022-10-07T06:44:26.371Z,4.20
2022-10-07T06:45:21.746Z,3.70
2022-10-07T06:46:17.422Z,3.90
2022-10-07T06:47:12.583Z,4.10
2022-10-07T06:48:07.993Z,4.70
2022-10-07T06:49:03.466Z,4.20
2022-10-07T06:49:58.825Z,4.50
2022-10-07T06:50:54.222Z,4.30
2022-10-07T06:51:49.715Z,4.20
2022-10-07T06:52:45.358Z,4.20
2022-10-07T06:53:40.728Z,4.10
2022-10-07T06:54:36.097Z,3.80
2022-10-07T06:55:31.482Z,3.90
2022-10-07T06:56:26.917Z,4.20
2022-10-07T06:57:44.364Z,3.70
2022-10-07T06:58:18.746Z,4.00
2022-10-07T06:59:13.111Z,4.10
2022-10-07T07:00:08.532Z,4.00
2022-10-07T07:01:03.959Z,3.70
2022-10-07T07:01:59.388Z,3.90
2022-10-07T07:02:54.661Z,3.60
2022-10-07T07:03:50.185Z,4.10
2022-10-07T07:04:45.494Z,3.50
2022-10-07T07:05:44.451Z,3.10
2022-10-07T07:06:37.310Z,3.20
2022-10-07T07:07:31.632Z,3.10
2022-10-07T07:08:27.037Z,3.40
2022-10-07T07:09:22.459Z,2.60
2022-10-07T07:10:17.858Z,2.50
2022-10-07T07:11:13.358Z,3.10
2022-10-07T07:12:08.646Z,3.10
2022-10-07T07:13:04.072Z,2.70
2022-10-07T07:13:59.474Z,2.90
2022-10-07T07:14:54.883Z,3.00
2022-10-07T07:15:50.265Z,3.00
2022-10-07T07:16:45.756Z,2.70
2022-10-07T07:17:41.113Z,2.60
2022-10-07T07:18:36.575Z,3.50
2022-10-07T07:19:31.989Z,2.80
2022-10-07T07:20:27.362Z,2.30
2022-10-07T07:21:22.873Z,3.40
2022-10-07T07:22:18.318Z,2.90
2022-10-07T07:23:13.531Z,3.20
2022-10-07T07:24:08.951Z,2.80
2022-10-07T07:25:04.331Z,2.80
2022-10-07T07:25:59.715Z,3.10
2022-10-07T07:26:55.099Z,3.10
2022-10-07T07:27:55.220Z,2.90
2022-10-07T07:28:47.037Z,2.80
2022-10-07T07:29:41.540Z,3.30
2022-10-07T07:30:36.996Z,2.40
2022-10-07T07:31:32.389Z,2.90
2022-10-07T07:32:27.859Z,3.10
2022-10-07T07:33:23.257Z,2.80
2022-10-07T07:34:18.766Z,3.50
2022-10-07T07:35:14.052Z,3.20
2022-10-07T07:36:09.474Z,3.20
2022-10-07T07:37:04.925Z,3.00
2022-10-07T07:38:00.355Z,3.30
2022-10-07T07:38:55.780Z,3.30
2022-10-07T07:39:51.222Z,3.80
2022-10-07T07:40:46.697Z,3.80
2022-10-07T07:41:42.146Z,4.20
2022-10-07T07:42:37.590Z,4.10
2022-10-07T07:43:33.029Z,4.70
2022-10-07T07:44:32.574Z,4.50
2022-10-07T07:45:25.169Z,5.60
2022-10-07T07:46:19.757Z,6.40
2022-10-07T07:47:15.258Z,8.30
2022-10-07T07:48:10.809Z,8.90
2022-10-07T07:49:06.348Z,9.10
2022-10-07T07:50:01.779Z,9.90
2022-10-07T07:50:57.198Z,9.10
2022-10-07T07:51:52.692Z,8.80
2022-10-07T07:52:48.240Z,8.10
2022-10-07T07:53:43.684Z,7.90
2022-10-07T07:54:39.151Z,8.40
2022-10-07T07:55:34.555Z,7.50
2022-10-07T07:56:29.856Z,7.30
2022-10-07T07:57:25.287Z,7.30
2022-10-07T07:58:20.748Z,7.30
2022-10-07T07:59:16.196Z,7.10
2022-10-07T08:00:11.606Z,6.60
2022-10-07T08:01:07.221Z,6.50
2022-10-07T08:02:02.712Z,7.10
2022-10-07T08:02:58.220Z,10.10
2022-10-07T08:03:53.712Z,8.70
2022-10-07T08:04:49.226Z,8.00
2022-10-07T08:05:44.701Z,8.20
2022-10-07T08:06:40.235Z,8.80
2022-10-07T08:07:35.662Z,9.70
2022-10-07T08:08:31.086Z,9.90
2022-10-07T08:09:26.560Z,9.00
2022-10-07T08:10:21.978Z,9.90
2022-10-07T08:11:17.413Z,9.10
2022-10-07T08:12:12.858Z,8.70
2022-10-07T08:13:08.304Z,8.80
2022-10-07T08:14:03.709Z,8.90
2022-10-07T08:14:59.086Z,9.10
2022-10-07T08:15:54.530Z,10.80
2022-10-07T08:16:49.960Z,10.80
2022-10-07T08:17:45.666Z,11.20
2022-10-07T08:18:40.914Z,10.70
2022-10-07T08:19:36.248Z,10.40
2022-10-07T08:20:31.682Z,11.80
2022-10-07T08:21:27.097Z,11.40
2022-10-07T08:22:22.567Z,11.40
2022-10-07T08:23:18.030Z,11.70
2022-10-07T08:24:13.436Z,11.50
2022-10-07T08:25:08.743Z,12.50
2022-10-07T08:26:04.198Z,12.70
2022-10-07T08:26:59.685Z,12.60
2022-10-07T08:27:55.115Z,12.00
2022-10-07T08:28:50.550Z,12.20
2022-10-07T08:29:46.039Z,12.00
2022-10-07T08:30:41.544Z,11.70
2022-10-07T08:31:36.859Z,10.80
2022-10-07T08:32:32.361Z,10.50
2022-10-07T08:33:27.792Z,10.50
2022-10-07T08:34:23.215Z,11.60
2022-10-07T08:35:18.567Z,11.30
2022-10-07T08:36:13.989Z,11.40
2022-10-07T08:37:09.652Z,10.40
2022-10-07T08:38:04.942Z,10.40
2022-10-07T08:39:00.404Z,10.40
2022-10-07T08:39:55.890Z,10.50
2022-10-07T08:40:51.284Z,10.20
2022-10-07T08:41:46.713Z,11.10
2022-10-07T08:42:42.207Z,12.10
2022-10-07T08:43:37.629Z,11.00
2022-10-07T08:44:33.057Z,10.70
2022-10-07T08:45:28.383Z,10.90
2022-10-07T08:46:23.887Z,10.70
2022-10-07T08:47:19.261Z,11.80
2022-10-07T08:48:14.604Z,10.80
2022-10-07T08:49:10.036Z,11.10
2022-10-07T08:50:05.528Z,12.80
2022-10-07T08:51:00.937Z,11.90
2022-10-07T08:51:56.548Z,12.10
2022-10-07T08:52:51.745Z,11.60
2022-10-07T08:53:47.202Z,12.00
2022-10-07T08:54:42.584Z,11.50
2022-10-07T08:55:37.913Z,11.00
2022-10-07T08:56:33.322Z,11.00
2022-10-07T08:57:28.791Z,11.30
2022-10-07T08:58:24.233Z,10.90
2022-10-07T08:59:19.693Z,10.40
2022-10-07T09:00:15.171Z,10.70
2022-10-07T09:01:10.625Z,10.10
2022-10-07T09:02:06.042Z,10.60
2022-10-07T09:03:01.580Z,11.10
2022-10-07T09:03:56.990Z,10.30
2022-10-07T09:04:52.431Z,11.60
2022-10-07T09:05:47.752Z,11.00
2022-10-07T09:06:43.209Z,11.50
2022-10-07T09:07:38.551Z,10.90
2022-10-07T09:08:34.025Z,10.80
2022-10-07T09:09:29.399Z,10.80
2022-10-07T09:10:24.858Z,11.20
2022-10-07T09:11:20.291Z,11.50
2022-10-07T09:12:15.723Z,11.20
2022-10-07T09:13:11.214Z,10.20
2022-10-07T09:14:06.649Z,9.60
2022-10-07T09:15:02.043Z,10.70
2022-10-07T09:15:57.398Z,10.10
2022-10-07T09:16:52.827Z,9.40
2022-10-07T09:17:48.240Z,9.80
2022-10-07T09:18:43.489Z,10.00
2022-10-07T09:19:38.908Z,9.60
2022-10-07T09:20:34.375Z,9.90
2022-10-07T09:21:29.934Z,10.70
2022-10-07T09:22:25.227Z,9.60
2022-10-07T09:23:20.670Z,10.50
2022-10-07T09:24:16.098Z,10.20
2022-10-07T09:25:11.757Z,10.50
2022-10-07T09:26:06.954Z,10.30
2022-10-07T09:27:02.439Z,10.20
2022-10-07T09:27:57.960Z,9.40
2022-10-07T09:28:53.290Z,11.20
2022-10-07T09:29:48.740Z,10.60
2022-10-07T09:30:44.234Z,10.20
2022-10-07T09:31:39.655Z,10.60
2022-10-07T09:32:35.144Z,9.70
2022-10-07T09:33:30.654Z,9.70
2022-10-07T09:34:26.133Z,10.00
2022-10-07T09:35:21.592Z,10.70
2022-10-07T09:36:16.934Z,10.30
2022-10-07T09:37:12.371Z,9.60
2022-10-07T09:38:07.829Z,9.80
2022-10-07T09:39:03.264Z,10.40
2022-10-07T09:39:58.700Z,9.80
2022-10-07T09:40:54.145Z,9.30
2022-10-07T09:41:49.569Z,10.20
2022-10-07T09:42:45.006Z,9.50
2022-10-07T09:43:40.479Z,9.70
2022-10-07T09:44:35.903Z,9.90
2022-10-07T09:45:31.382Z,9.50
2022-10-07T09:46:26.656Z,10.10
2022-10-07T09:47:22.028Z,10.00
2022-10-07T09:48:17.513Z,10.00
2022-10-07T09:49:12.739Z,9.90
2022-10-07T09:50:08.229Z,10.40
2022-10-07T09:51:03.555Z,9.80
2022-10-07T09:51:58.978Z,10.40
2022-10-07T09:52:54.455Z,10.30
2022-10-07T09:53:49.816Z,10.10
2022-10-07T09:54:45.223Z,9.90
2022-10-07T09:55:40.711Z,10.30
2022-10-07T09:56:36.096Z,9.70
2022-10-07T09:57:31.566Z,9.40
2022-10-07T09:58:26.866Z,9.80
2022-10-07T09:59:22.303Z,9.80
2022-10-07T10:00:17.734Z,9.50
2022-10-07T10:01:13.211Z,8.90
2022-10-07T10:02:08.731Z,9.50
2022-10-07T10:03:05.547Z,9.90
2022-10-07T10:03:59.428Z,9.80
2022-10-07T10:04:54.885Z,9.80
2022-10-07T10:05:50.280Z,9.90
2022-10-07T10:06:45.646Z,10.30
2022-10-07T10:07:41.175Z,9.80
2022-10-07T10:08:36.535Z,9.40
2022-10-07T10:09:31.972Z,8.80
2022-10-07T10:10:27.412Z,9.40
2022-10-07T10:11:22.875Z,8.60
2022-10-07T10:12:18.294Z,8.60
2022-10-07T10:13:13.893Z,8.60
2022-10-07T10:14:09.215Z,8.10
2022-10-07T10:15:04.667Z,8.10
2022-10-07T10:16:00.369Z,9.30
2022-10-07T10:16:55.428Z,8.60
2022-10-07T10:17:50.977Z,8.70
2022-10-07T10:18:46.411Z,8.90
2022-10-07T10:19:41.865Z,9.50
2022-10-07T10:20:37.438Z,9.50
2022-10-07T10:21:32.895Z,8.80
2022-10-07T10:22:28.309Z,8.70
2022-10-07T10:23:23.734Z,9.10
2022-10-07T10:24:19.203Z,8.50
2022-10-07T10:25:14.653Z,9.50
2022-10-07T10:26:10.178Z,9.60
2022-10-07T10:27:05.487Z,9.30
2022-10-07T10:28:00.817Z,8.80
2022-10-07T10:28:56.154Z,9.40
2022-10-07T10:29:51.588Z,9.60
2022-10-07T10:30:47.092Z,10.20
2022-10-07T10:31:42.379Z,10.30
2022-10-07T10:32:37.902Z,10.20
2022-10-07T10:33:33.185Z,10.40
2022-10-07T10:34:28.617Z,9.90
2022-10-07T10:35:24.190Z,9.20
2022-10-07T10:36:19.653Z,10.00
2022-10-07T10:37:14.880Z,10.80
2022-10-07T10:38:10.271Z,10.50
2022-10-07T10:39:05.746Z,10.20
2022-10-07T10:40:01.193Z,10.00
2022-10-07T10:40:56.631Z,10.00
2022-10-07T10:41:52.075Z,11.10
2022-10-07T10:42:48.121Z,10.20
2022-10-07T10:43:42.815Z,10.20
2022-10-07T10:44:38.265Z,10.00
2022-10-07T10:45:33.723Z,11.60
2022-10-07T10:46:29.334Z,11.70
2022-10-07T10:47:24.551Z,10.30
2022-10-07T10:48:19.977Z,11.80
2022-10-07T10:49:15.436Z,11.60
2022-10-07T10:50:11.016Z,11.50
2022-10-07T10:51:06.583Z,11.30
2022-10-07T10:52:02.054Z,11.00
2022-10-07T10:52:57.487Z,10.80
2022-10-07T10:53:52.919Z,9.90
2022-10-07T10:54:48.353Z,10.60
2022-10-07T10:55:43.831Z,10.70
2022-10-07T10:56:39.240Z,10.80
2022-10-07T10:57:34.727Z,10.50
2022-10-07T10:58:30.140Z,10.60
2022-10-07T10:59:25.586Z,10.60
2022-10-07T11:00:20.912Z,11.10
2022-10-07T11:01:16.469Z,11.20
2022-10-07T11:02:12.083Z,10.30
2022-10-07T11:03:07.465Z,11.70
2022-10-07T11:04:02.854Z,11.50
2022-10-07T11:04:58.503Z,12.00
2022-10-07T11:05:53.879Z,12.70
2022-10-07T11:06:49.388Z,12.70
2022-10-07T11:07:44.995Z,12.50
2022-10-07T11:08:40.267Z,13.50
2022-10-07T11:09:35.767Z,12.60
2022-10-07T11:10:31.347Z,11.90
2022-10-07T11:11:26.832Z,12.90
2022-10-07T11:12:22.337Z,12.30
2022-10-07T11:13:17.997Z,12.20
2022-10-07T11:14:13.485Z,12.20
2022-10-07T11:15:08.998Z,13.40
2022-10-07T11:16:04.730Z,13.60
2022-10-07T11:17:00.221Z,13.50
2022-10-07T11:17:55.751Z,12.70
2022-10-07T11:18:51.328Z,14.10
2022-10-07T11:19:46.861Z,14.60
2022-10-07T11:20:44.676Z,13.70
2022-10-07T11:21:37.946Z,13.30
2022-10-07T11:22:33.482Z,14.20
2022-10-07T11:23:29.124Z,13.70
2022-10-07T11:24:24.568Z,14.70
2022-10-07T11:25:20.084Z,13.70
2022-10-07T11:26:15.614Z,13.40
2022-10-07T11:27:11.151Z,13.40
2022-10-07T11:28:06.717Z,13.90
2022-10-07T11:29:02.258Z,12.90
2022-10-07T11:29:57.812Z,13.20
2022-10-07T11:30:53.389Z,13.80
2022-10-07T11:31:48.767Z,14.10
2022-10-07T11:32:44.679Z,13.50
2022-10-07T11:33:39.903Z,13.70
2022-10-07T11:34:35.443Z,13.80
2022-10-07T11:35:30.868Z,12.90
2022-10-07T11:36:26.262Z,13.90
2022-10-07T11:37:21.760Z,14.80
2022-10-07T11:38:17.331Z,14.50
2022-10-07T11:39:12.868Z,13.40
2022-10-07T11:40:08.364Z,14.40
2022-10-07T11:41:03.889Z,12.90
2022-10-07T11:41:59.397Z,13.20
2022-10-07T11:42:54.898Z,13.40
2022-10-07T11:43:50.328Z,13.90
2022-10-07T11:44:45.730Z,13.50
2022-10-07T11:45:41.146Z,14.60
2022-10-07T11:46:36.872Z,14.00
2022-10-07T11:47:32.357Z,14.00
2022-10-07T11:48:27.907Z,13.40
2022-10-07T11:49:23.459Z,13.80
2022-10-07T11:50:18.733Z,13.70
2022-10-07T11:51:14.377Z,14.00
2022-10-07T11:52:09.790Z,14.20
2022-10-07T11:53:05.314Z,14.30
2022-10-07T11:54:00.882Z,13.20
2022-10-07T11:54:56.383Z,13.40
2022-10-07T11:55:55.180Z,12.70
2022-10-07T11:56:47.345Z,12.80
2022-10-07T11:57:42.998Z,12.90
2022-10-07T11:58:38.500Z,12.90
2022-10-07T11:59:33.844Z,13.30
2022-10-07T12:00:29.459Z,12.90
2022-10-07T12:01:24.881Z,12.50
2022-10-07T12:02:20.470Z,12.50
2022-10-07T12:03:16.110Z,13.20
2022-10-07T12:04:11.531Z,12.20
2022-10-07T12:05:06.921Z,12.70
2022-10-07T12:06:02.448Z,12.70
2022-10-07T12:06:57.983Z,11.90
2022-10-07T12:07:53.484Z,12.20
2022-10-07T12:08:49.101Z,12.10
2022-10-07T12:09:44.727Z,12.20
2022-10-07T12:10:40.039Z,12.40
2022-10-07T12:11:35.714Z,13.00